sensor_id;sensor_type;location;lat;lon;timestamp;temperature;humidity
1415;DHT22;702;49.466;11.086;2022-08-24T00:01:14;16.90;85.80
1415;DHT22;702;49.466;11.086;2022-08-24T00:03:45;16.80;86.60
1415;DHT22;702;49.466;11.086;2022-08-24T00:06:15;16.80;86.80
1415;DHT22;702;49.466;11.086;2022-08-24T00:08:46;16.70;86.90
1415;DHT22;702;49.466;11.086;2022-08-24T00:11:15;16.80;86.90
1415;DHT22;702;49.466;11.086;2022-08-24T00:13:43;16.80;87.20
1415;DHT22;702;49.466;11.086;2022-08-24T00:16:11;16.90;87.10
1415;DHT22;702;49.466;11.086;2022-08-24T00:18:39;16.90;87.20
1415;DHT22;702;49.466;11.086;2022-08-24T00:21:06;16.80;87.60
1415;DHT22;702;49.466;11.086;2022-08-24T00:23:35;16.80;87.70
1415;DHT22;702;49.466;11.086;2022-08-24T00:26:04;16.70;88.00
1415;DHT22;702;49.466;11.086;2022-08-24T00:28:32;16.70;88.50
1415;DHT22;702;49.466;11.086;2022-08-24T00:31:02;16.60;89.00
1415;DHT22;702;49.466;11.086;2022-08-24T00:33:29;16.50;89.50
1415;DHT22;702;49.466;11.086;2022-08-24T00:36:00;16.50;90.00
1415;DHT22;702;49.466;11.086;2022-08-24T00:38:27;16.50;90.10
1415;DHT22;702;49.466;11.086;2022-08-24T00:40:55;16.40;90.40
1415;DHT22;702;49.466;11.086;2022-08-24T00:43:25;16.40;90.60
1415;DHT22;702;49.466;11.086;2022-08-24T00:46:01;16.40;90.60
1415;DHT22;702;49.466;11.086;2022-08-24T00:48:38;16.50;90.70
1415;DHT22;702;49.466;11.086;2022-08-24T00:51:13;16.40;90.90
1415;DHT22;702;49.466;11.086;2022-08-24T00:53:46;16.40;91.30
1415;DHT22;702;49.466;11.086;2022-08-24T00:56:20;16.40;91.20
1415;DHT22;702;49.466;11.086;2022-08-24T00:58:59;16.30;91.30
1415;DHT22;702;49.466;11.086;2022-08-24T01:01:30;16.30;91.40
1415;DHT22;702;49.466;11.086;2022-08-24T01:03:59;16.20;91.90
1415;DHT22;702;49.466;11.086;2022-08-24T01:06:27;16.20;92.10
1415;DHT22;702;49.466;11.086;2022-08-24T01:08:54;16.20;92.10
1415;DHT22;702;49.466;11.086;2022-08-24T01:11:25;16.10;92.50
1415;DHT22;702;49.466;11.086;2022-08-24T01:13:55;16.00;92.70
1415;DHT22;702;49.466;11.086;2022-08-24T01:16:25;16.00;92.90
1415;DHT22;702;49.466;11.086;2022-08-24T01:19:18;16.10;92.90
1415;DHT22;702;49.466;11.086;2022-08-24T01:22:01;16.20;92.70
1415;DHT22;702;49.466;11.086;2022-08-24T01:24:37;16.30;92.40
1415;DHT22;702;49.466;11.086;2022-08-24T01:27:08;16.30;92.00
1415;DHT22;702;49.466;11.086;2022-08-24T01:29:36;16.20;92.20
1415;DHT22;702;49.466;11.086;2022-08-24T01:32:05;16.10;92.20
1415;DHT22;702;49.466;11.086;2022-08-24T01:34:33;16.10;92.50
1415;DHT22;702;49.466;11.086;2022-08-24T01:37:01;16.00;92.80
1415;DHT22;702;49.466;11.086;2022-08-24T01:39:32;15.90;93.00
1415;DHT22;702;49.466;11.086;2022-08-24T01:42:02;15.90;93.30
1415;DHT22;702;49.466;11.086;2022-08-24T01:44:33;15.80;93.80
1415;DHT22;702;49.466;11.086;2022-08-24T01:47:03;15.70;93.80
1415;DHT22;702;49.466;11.086;2022-08-24T01:49:35;15.70;94.20
1415;DHT22;702;49.466;11.086;2022-08-24T01:52:06;15.60;94.40
1415;DHT22;702;49.466;11.086;2022-08-24T01:54:34;15.50;94.60
1415;DHT22;702;49.466;11.086;2022-08-24T01:57:05;15.50;94.90
1415;DHT22;702;49.466;11.086;2022-08-24T01:59:32;15.60;94.50
1415;DHT22;702;49.466;11.086;2022-08-24T02:02:03;15.50;94.80
1415;DHT22;702;49.466;11.086;2022-08-24T02:04:34;15.50;95.00
1415;DHT22;702;49.466;11.086;2022-08-24T02:07:01;15.50;95.20
1415;DHT22;702;49.466;11.086;2022-08-24T02:09:29;15.40;95.80
1415;DHT22;702;49.466;11.086;2022-08-24T02:11:57;15.40;95.60
1415;DHT22;702;49.466;11.086;2022-08-24T02:14:25;15.40;96.10
1415;DHT22;702;49.466;11.086;2022-08-24T02:16:53;15.40;95.80
1415;DHT22;702;49.466;11.086;2022-08-24T02:19:22;15.40;96.30
1415;DHT22;702;49.466;11.086;2022-08-24T02:21:50;15.40;96.40
1415;DHT22;702;49.466;11.086;2022-08-24T02:24:18;15.30;96.40
1415;DHT22;702;49.466;11.086;2022-08-24T02:26:45;15.30;96.80
1415;DHT22;702;49.466;11.086;2022-08-24T02:29:14;15.20;97.70
1415;DHT22;702;49.466;11.086;2022-08-24T02:31:43;15.20;97.90
1415;DHT22;702;49.466;11.086;2022-08-24T02:34:10;15.20;98.10
1415;DHT22;702;49.466;11.086;2022-08-24T02:36:38;15.20;98.30
1415;DHT22;702;49.466;11.086;2022-08-24T02:39:06;15.10;97.90
1415;DHT22;702;49.466;11.086;2022-08-24T02:41:35;15.10;98.90
1415;DHT22;702;49.466;11.086;2022-08-24T02:44:04;14.90;99.60
1415;DHT22;702;49.466;11.086;2022-08-24T02:46:32;14.90;99.90
1415;DHT22;702;49.466;11.086;2022-08-24T02:49:01;14.90;99.90
1415;DHT22;702;49.466;11.086;2022-08-24T02:51:31;14.90;99.90
1415;DHT22;702;49.466;11.086;2022-08-24T02:54:01;14.90;99.90
1415;DHT22;702;49.466;11.086;2022-08-24T02:56:30;14.90;99.90
1415;DHT22;702;49.466;11.086;2022-08-24T02:58:58;14.90;99.90
1415;DHT22;702;49.466;11.086;2022-08-24T03:01:28;15.00;99.80
1415;DHT22;702;49.466;11.086;2022-08-24T03:03:55;15.00;99.80
1415;DHT22;702;49.466;11.086;2022-08-24T03:06:24;14.90;99.90
1415;DHT22;702;49.466;11.086;2022-08-24T03:08:52;15.00;99.60
1415;DHT22;702;49.466;11.086;2022-08-24T03:11:19;15.00;98.80
1415;DHT22;702;49.466;11.086;2022-08-24T03:13:46;14.90;99.60
1415;DHT22;702;49.466;11.086;2022-08-24T03:16:14;14.80;99.90
1415;DHT22;702;49.466;11.086;2022-08-24T03:18:42;14.80;99.90
1415;DHT22;702;49.466;11.086;2022-08-24T03:21:10;14.80;99.90
1415;DHT22;702;49.466;11.086;2022-08-24T03:23:39;14.80;99.90
1415;DHT22;702;49.466;11.086;2022-08-24T03:26:07;14.80;99.90
1415;DHT22;702;49.466;11.086;2022-08-24T03:28:34;14.70;99.90
1415;DHT22;702;49.466;11.086;2022-08-24T03:31:03;14.70;99.90
1415;DHT22;702;49.466;11.086;2022-08-24T03:33:32;14.60;99.90
1415;DHT22;702;49.466;11.086;2022-08-24T03:35:59;14.70;99.90
1415;DHT22;702;49.466;11.086;2022-08-24T03:38:27;14.70;99.90
1415;DHT22;702;49.466;11.086;2022-08-24T03:40:56;14.70;99.90
1415;DHT22;702;49.466;11.086;2022-08-24T03:43:23;14.70;99.90
1415;DHT22;702;49.466;11.086;2022-08-24T03:46:20;14.70;99.90
1415;DHT22;702;49.466;11.086;2022-08-24T03:48:48;14.70;99.90
1415;DHT22;702;49.466;11.086;2022-08-24T03:51:19;14.60;99.90
1415;DHT22;702;49.466;11.086;2022-08-24T03:53:49;14.70;99.90
1415;DHT22;702;49.466;11.086;2022-08-24T03:56:18;14.60;99.90
1415;DHT22;702;49.466;11.086;2022-08-24T03:58:46;14.60;99.90
1415;DHT22;702;49.466;11.086;2022-08-24T04:01:15;14.50;99.90
1415;DHT22;702;49.466;11.086;2022-08-24T04:03:44;14.50;99.90
1415;DHT22;702;49.466;11.086;2022-08-24T04:06:14;14.40;99.90
1415;DHT22;702;49.466;11.086;2022-08-24T04:08:43;14.50;99.90
1415;DHT22;702;49.466;11.086;2022-08-24T04:11:12;14.40;99.90
1415;DHT22;702;49.466;11.086;2022-08-24T04:13:43;14.50;99.90
1415;DHT22;702;49.466;11.086;2022-08-24T04:16:12;14.40;99.90
1415;DHT22;702;49.466;11.086;2022-08-24T04:18:42;14.40;99.90
1415;DHT22;702;49.466;11.086;2022-08-24T04:21:16;14.50;99.90
1415;DHT22;702;49.466;11.086;2022-08-24T04:23:45;14.50;99.90
1415;DHT22;702;49.466;11.086;2022-08-24T04:26:13;14.50;99.90
1415;DHT22;702;49.466;11.086;2022-08-24T04:28:43;14.60;99.90
1415;DHT22;702;49.466;11.086;2022-08-24T04:31:10;14.60;99.90
1415;DHT22;702;49.466;11.086;2022-08-24T04:33:39;14.60;99.90
1415;DHT22;702;49.466;11.086;2022-08-24T04:36:08;14.60;99.90
1415;DHT22;702;49.466;11.086;2022-08-24T04:38:37;14.60;99.90
1415;DHT22;702;49.466;11.086;2022-08-24T04:41:06;14.80;99.90
1415;DHT22;702;49.466;11.086;2022-08-24T04:43:35;15.30;98.80
1415;DHT22;702;49.466;11.086;2022-08-24T04:46:05;15.50;97.00
1415;DHT22;702;49.466;11.086;2022-08-24T04:48:34;15.70;94.90
1415;DHT22;702;49.466;11.086;2022-08-24T04:51:03;15.90;94.10
1415;DHT22;702;49.466;11.086;2022-08-24T04:53:32;16.10;93.20
1415;DHT22;702;49.466;11.086;2022-08-24T04:56:01;16.30;92.60
1415;DHT22;702;49.466;11.086;2022-08-24T04:58:29;16.50;92.10
1415;DHT22;702;49.466;11.086;2022-08-24T05:00:57;16.80;90.90
1415;DHT22;702;49.466;11.086;2022-08-24T05:03:27;16.90;90.60
1415;DHT22;702;49.466;11.086;2022-08-24T05:05:54;17.10;90.10
1415;DHT22;702;49.466;11.086;2022-08-24T05:08:21;17.60;88.50
1415;DHT22;702;49.466;11.086;2022-08-24T05:10:49;18.20;87.00
1415;DHT22;702;49.466;11.086;2022-08-24T05:13:16;18.50;85.90
1415;DHT22;702;49.466;11.086;2022-08-24T05:15:46;18.70;84.80
1415;DHT22;702;49.466;11.086;2022-08-24T05:18:16;18.70;84.40
1415;DHT22;702;49.466;11.086;2022-08-24T05:20:46;18.80;84.20
1415;DHT22;702;49.466;11.086;2022-08-24T05:23:14;18.70;84.40
1415;DHT22;702;49.466;11.086;2022-08-24T05:25:43;18.80;84.50
1415;DHT22;702;49.466;11.086;2022-08-24T05:28:11;19.00;83.80
1415;DHT22;702;49.466;11.086;2022-08-24T05:30:40;19.10;83.80
1415;DHT22;702;49.466;11.086;2022-08-24T05:33:07;19.00;83.90
1415;DHT22;702;49.466;11.086;2022-08-24T05:35:36;19.20;83.80
1415;DHT22;702;49.466;11.086;2022-08-24T05:38:05;19.80;82.80
1415;DHT22;702;49.466;11.086;2022-08-24T05:40:36;20.00;82.00
1415;DHT22;702;49.466;11.086;2022-08-24T05:43:03;20.00;81.80
1415;DHT22;702;49.466;11.086;2022-08-24T05:45:30;20.30;81.40
1415;DHT22;702;49.466;11.086;2022-08-24T05:47:59;20.50;80.70
1415;DHT22;702;49.466;11.086;2022-08-24T05:50:26;20.50;80.40
1415;DHT22;702;49.466;11.086;2022-08-24T05:52:54;19.60;81.60
1415;DHT22;702;49.466;11.086;2022-08-24T05:55:23;18.20;83.90
1415;DHT22;702;49.466;11.086;2022-08-24T05:57:50;17.60;86.50
1415;DHT22;702;49.466;11.086;2022-08-24T06:00:18;17.40;87.90
1415;DHT22;702;49.466;11.086;2022-08-24T06:02:45;17.20;89.20
1415;DHT22;702;49.466;11.086;2022-08-24T06:05:14;17.20;89.70
1415;DHT22;702;49.466;11.086;2022-08-24T06:07:41;17.00;90.20
1415;DHT22;702;49.466;11.086;2022-08-24T06:10:09;17.00;90.60
1415;DHT22;702;49.466;11.086;2022-08-24T06:12:39;17.10;90.40
1415;DHT22;702;49.466;11.086;2022-08-24T06:15:07;17.30;90.20
1415;DHT22;702;49.466;11.086;2022-08-24T06:17:35;17.40;89.90
1415;DHT22;702;49.466;11.086;2022-08-24T06:20:04;17.50;89.60
1415;DHT22;702;49.466;11.086;2022-08-24T06:22:32;17.60;89.60
1415;DHT22;702;49.466;11.086;2022-08-24T06:24:59;17.70;88.90
1415;DHT22;702;49.466;11.086;2022-08-24T06:27:47;17.80;88.90
1415;DHT22;702;49.466;11.086;2022-08-24T06:30:14;17.90;88.80
1415;DHT22;702;49.466;11.086;2022-08-24T06:32:42;18.10;88.70
1415;DHT22;702;49.466;11.086;2022-08-24T06:35:09;18.10;88.30
1415;DHT22;702;49.466;11.086;2022-08-24T06:37:37;18.10;88.60
1415;DHT22;702;49.466;11.086;2022-08-24T06:40:06;18.20;88.80
1415;DHT22;702;49.466;11.086;2022-08-24T06:42:35;18.30;88.20
1415;DHT22;702;49.466;11.086;2022-08-24T06:45:04;18.40;87.90
1415;DHT22;702;49.466;11.086;2022-08-24T06:47:31;18.40;87.70
1415;DHT22;702;49.466;11.086;2022-08-24T06:49:58;18.50;87.70
1415;DHT22;702;49.466;11.086;2022-08-24T06:52:27;18.70;87.60
1415;DHT22;702;49.466;11.086;2022-08-24T06:54:54;18.80;87.40
1415;DHT22;702;49.466;11.086;2022-08-24T06:57:23;18.90;87.00
1415;DHT22;702;49.466;11.086;2022-08-24T06:59:50;18.90;87.00
1415;DHT22;702;49.466;11.086;2022-08-24T07:02:19;18.90;87.10
1415;DHT22;702;49.466;11.086;2022-08-24T07:04:47;19.00;87.10
1415;DHT22;702;49.466;11.086;2022-08-24T07:07:15;19.20;87.10
1415;DHT22;702;49.466;11.086;2022-08-24T07:09:43;19.20;86.90
1415;DHT22;702;49.466;11.086;2022-08-24T07:12:10;19.40;86.60
1415;DHT22;702;49.466;11.086;2022-08-24T07:14:38;19.60;86.50
1415;DHT22;702;49.466;11.086;2022-08-24T07:17:05;19.80;86.20
1415;DHT22;702;49.466;11.086;2022-08-24T07:19:34;19.90;85.80
1415;DHT22;702;49.466;11.086;2022-08-24T07:22:03;20.00;85.20
1415;DHT22;702;49.466;11.086;2022-08-24T07:24:30;20.10;85.10
1415;DHT22;702;49.466;11.086;2022-08-24T07:26:59;20.20;85.20
1415;DHT22;702;49.466;11.086;2022-08-24T07:29:26;20.30;84.80
1415;DHT22;702;49.466;11.086;2022-08-24T07:31:53;20.40;84.30
1415;DHT22;702;49.466;11.086;2022-08-24T07:34:22;20.30;84.30
1415;DHT22;702;49.466;11.086;2022-08-24T07:36:50;20.40;84.40
1415;DHT22;702;49.466;11.086;2022-08-24T07:39:19;20.40;84.10
1415;DHT22;702;49.466;11.086;2022-08-24T07:41:47;20.50;84.10
1415;DHT22;702;49.466;11.086;2022-08-24T07:44:14;20.60;84.10
1415;DHT22;702;49.466;11.086;2022-08-24T07:46:42;20.80;84.00
1415;DHT22;702;49.466;11.086;2022-08-24T07:49:12;20.90;84.00
1415;DHT22;702;49.466;11.086;2022-08-24T07:51:40;21.00;83.30
1415;DHT22;702;49.466;11.086;2022-08-24T07:54:09;21.10;83.10
1415;DHT22;702;49.466;11.086;2022-08-24T07:56:37;21.30;83.30
1415;DHT22;702;49.466;11.086;2022-08-24T07:59:05;21.50;82.50
1415;DHT22;702;49.466;11.086;2022-08-24T08:01:33;21.60;82.30
1415;DHT22;702;49.466;11.086;2022-08-24T08:04:00;21.60;82.00
1415;DHT22;702;49.466;11.086;2022-08-24T08:06:29;21.50;81.90
1415;DHT22;702;49.466;11.086;2022-08-24T08:08:57;21.70;81.40
1415;DHT22;702;49.466;11.086;2022-08-24T08:11:26;21.90;81.30
1415;DHT22;702;49.466;11.086;2022-08-24T08:13:54;21.90;81.00
1415;DHT22;702;49.466;11.086;2022-08-24T08:16:21;22.00;80.80
1415;DHT22;702;49.466;11.086;2022-08-24T08:18:48;22.00;80.60
1415;DHT22;702;49.466;11.086;2022-08-24T08:21:16;22.10;80.60
1415;DHT22;702;49.466;11.086;2022-08-24T08:24:02;22.20;80.30
1415;DHT22;702;49.466;11.086;2022-08-24T08:26:47;22.30;79.80
1415;DHT22;702;49.466;11.086;2022-08-24T08:29:17;22.40;79.80
1415;DHT22;702;49.466;11.086;2022-08-24T08:31:46;22.50;79.10
1415;DHT22;702;49.466;11.086;2022-08-24T08:34:13;22.50;78.90
1415;DHT22;702;49.466;11.086;2022-08-24T08:36:43;22.50;78.90
1415;DHT22;702;49.466;11.086;2022-08-24T08:39:12;22.60;79.10
1415;DHT22;702;49.466;11.086;2022-08-24T08:42:08;22.80;79.00
1415;DHT22;702;49.466;11.086;2022-08-24T08:44:55;23.00;78.60
1415;DHT22;702;49.466;11.086;2022-08-24T08:47:45;23.10;77.90
1415;DHT22;702;49.466;11.086;2022-08-24T08:54:10;23.30;77.40
1415;DHT22;702;49.466;11.086;2022-08-24T08:56:45;23.30;76.70
1415;DHT22;702;49.466;11.086;2022-08-24T08:59:39;23.30;76.80
1415;DHT22;702;49.466;11.086;2022-08-24T09:02:29;23.20;76.80
1415;DHT22;702;49.466;11.086;2022-08-24T09:08:24;23.40;76.60
1415;DHT22;702;49.466;11.086;2022-08-24T09:11:07;23.60;76.00
1415;DHT22;702;49.466;11.086;2022-08-24T09:14:03;23.50;75.20
1415;DHT22;702;49.466;11.086;2022-08-24T09:16:58;23.70;74.50
1415;DHT22;702;49.466;11.086;2022-08-24T09:19:49;23.80;74.10
1415;DHT22;702;49.466;11.086;2022-08-24T09:22:25;23.80;73.40
1415;DHT22;702;49.466;11.086;2022-08-24T09:25:04;23.90;72.90
1415;DHT22;702;49.466;11.086;2022-08-24T09:27:45;24.10;73.10
1415;DHT22;702;49.466;11.086;2022-08-24T09:30:21;24.20;72.10
1415;DHT22;702;49.466;11.086;2022-08-24T09:32:57;24.20;71.90
1415;DHT22;702;49.466;11.086;2022-08-24T09:35:34;24.40;71.90
1415;DHT22;702;49.466;11.086;2022-08-24T09:38:17;24.50;71.10
1415;DHT22;702;49.466;11.086;2022-08-24T09:41:17;24.40;71.80
1415;DHT22;702;49.466;11.086;2022-08-24T09:44:18;24.50;71.80
1415;DHT22;702;49.466;11.086;2022-08-24T09:47:18;24.60;71.80
1415;DHT22;702;49.466;11.086;2022-08-24T09:50:24;24.80;71.50
1415;DHT22;702;49.466;11.086;2022-08-24T09:53:51;24.90;71.10
1415;DHT22;702;49.466;11.086;2022-08-24T09:56:40;25.00;70.70
1415;DHT22;702;49.466;11.086;2022-08-24T09:59:31;24.90;71.20
1415;DHT22;702;49.466;11.086;2022-08-24T10:02:39;25.00;70.30
1415;DHT22;702;49.466;11.086;2022-08-24T10:05:30;25.10;70.80
1415;DHT22;702;49.466;11.086;2022-08-24T10:08:08;24.90;71.10
1415;DHT22;702;49.466;11.086;2022-08-24T10:10:48;24.80;71.00
1415;DHT22;702;49.466;11.086;2022-08-24T10:13:25;25.00;70.70
1415;DHT22;702;49.466;11.086;2022-08-24T10:16:16;25.20;70.10
1415;DHT22;702;49.466;11.086;2022-08-24T10:18:59;25.20;69.90
1415;DHT22;702;49.466;11.086;2022-08-24T10:21:45;25.40;70.30
1415;DHT22;702;49.466;11.086;2022-08-24T10:24:29;25.70;70.10
1415;DHT22;702;49.466;11.086;2022-08-24T10:27:45;26.00;69.00
1415;DHT22;702;49.466;11.086;2022-08-24T10:33:30;26.20;68.80
1415;DHT22;702;49.466;11.086;2022-08-24T10:36:14;26.50;68.40
1415;DHT22;702;49.466;11.086;2022-08-24T10:38:49;26.70;67.10
1415;DHT22;702;49.466;11.086;2022-08-24T10:42:11;26.60;66.90
1415;DHT22;702;49.466;11.086;2022-08-24T10:45:55;26.60;66.50
1415;DHT22;702;49.466;11.086;2022-08-24T10:49:04;26.40;64.90
1415;DHT22;702;49.466;11.086;2022-08-24T10:52:11;26.40;64.40
1415;DHT22;702;49.466;11.086;2022-08-24T10:54:51;26.70;64.70
1415;DHT22;702;49.466;11.086;2022-08-24T10:57:23;27.10;64.30
1415;DHT22;702;49.466;11.086;2022-08-24T11:00:00;27.30;64.00
1415;DHT22;702;49.466;11.086;2022-08-24T11:02:33;27.50;62.80
1415;DHT22;702;49.466;11.086;2022-08-24T11:05:04;27.40;63.50
1415;DHT22;702;49.466;11.086;2022-08-24T11:07:36;27.50;63.50
1415;DHT22;702;49.466;11.086;2022-08-24T11:10:23;27.50;62.80
1415;DHT22;702;49.466;11.086;2022-08-24T11:12:54;27.50;62.40
1415;DHT22;702;49.466;11.086;2022-08-24T11:15:23;27.30;61.90
1415;DHT22;702;49.466;11.086;2022-08-24T11:17:53;26.90;62.20
1415;DHT22;702;49.466;11.086;2022-08-24T11:20:28;26.70;62.10
1415;DHT22;702;49.466;11.086;2022-08-24T11:23:01;26.70;62.90
1415;DHT22;702;49.466;11.086;2022-08-24T11:25:32;26.80;62.40
1415;DHT22;702;49.466;11.086;2022-08-24T11:28:04;26.70;62.50
1415;DHT22;702;49.466;11.086;2022-08-24T11:30:37;26.70;62.40
1415;DHT22;702;49.466;11.086;2022-08-24T11:33:24;27.20;62.40
1415;DHT22;702;49.466;11.086;2022-08-24T11:35:54;27.30;60.80
1415;DHT22;702;49.466;11.086;2022-08-24T11:38:25;27.30;61.30
1415;DHT22;702;49.466;11.086;2022-08-24T11:41:01;27.60;61.10
1415;DHT22;702;49.466;11.086;2022-08-24T11:43:39;27.70;61.30
1415;DHT22;702;49.466;11.086;2022-08-24T11:46:26;27.80;61.60
1415;DHT22;702;49.466;11.086;2022-08-24T11:49:06;28.10;59.70
1415;DHT22;702;49.466;11.086;2022-08-24T11:51:42;28.00;59.80
1415;DHT22;702;49.466;11.086;2022-08-24T11:54:24;28.00;60.20
1415;DHT22;702;49.466;11.086;2022-08-24T11:57:07;28.10;59.90
1415;DHT22;702;49.466;11.086;2022-08-24T11:59:45;28.20;60.00
1415;DHT22;702;49.466;11.086;2022-08-24T12:02:22;28.30;59.70
1415;DHT22;702;49.466;11.086;2022-08-24T12:04:56;28.10;60.10
1415;DHT22;702;49.466;11.086;2022-08-24T12:07:42;28.00;59.60
1415;DHT22;702;49.466;11.086;2022-08-24T12:10:23;28.10;59.10
1415;DHT22;702;49.466;11.086;2022-08-24T12:13:00;28.40;58.60
1415;DHT22;702;49.466;11.086;2022-08-24T12:15:38;28.50;58.70
1415;DHT22;702;49.466;11.086;2022-08-24T12:18:21;29.00;58.40
1415;DHT22;702;49.466;11.086;2022-08-24T12:20:55;29.50;57.40
1415;DHT22;702;49.466;11.086;2022-08-24T12:23:29;29.40;57.50
1415;DHT22;702;49.466;11.086;2022-08-24T12:26:07;29.10;56.60
1415;DHT22;702;49.466;11.086;2022-08-24T12:28:43;29.10;57.10
1415;DHT22;702;49.466;11.086;2022-08-24T12:31:18;29.20;56.00
1415;DHT22;702;49.466;11.086;2022-08-24T12:33:51;29.40;55.50
1415;DHT22;702;49.466;11.086;2022-08-24T12:36:26;29.60;56.00
1415;DHT22;702;49.466;11.086;2022-08-24T12:39:05;30.10;55.70
1415;DHT22;702;49.466;11.086;2022-08-24T12:41:45;30.10;54.90
1415;DHT22;702;49.466;11.086;2022-08-24T12:44:17;30.00;54.90
1415;DHT22;702;49.466;11.086;2022-08-24T12:46:51;29.60;55.40
1415;DHT22;702;49.466;11.086;2022-08-24T12:49:24;29.30;55.50
1415;DHT22;702;49.466;11.086;2022-08-24T12:52:13;29.20;55.60
1415;DHT22;702;49.466;11.086;2022-08-24T12:55:11;29.00;55.80
1415;DHT22;702;49.466;11.086;2022-08-24T12:57:56;29.00;55.80
1415;DHT22;702;49.466;11.086;2022-08-24T13:00:43;29.00;55.80
1415;DHT22;702;49.466;11.086;2022-08-24T13:03:24;29.20;55.80
1415;DHT22;702;49.466;11.086;2022-08-24T13:06:05;29.20;55.50
1415;DHT22;702;49.466;11.086;2022-08-24T13:08:44;28.80;55.70
1415;DHT22;702;49.466;11.086;2022-08-24T13:11:27;28.70;56.20
1415;DHT22;702;49.466;11.086;2022-08-24T13:14:14;29.10;55.40
1415;DHT22;702;49.466;11.086;2022-08-24T13:16:47;29.40;55.60
1415;DHT22;702;49.466;11.086;2022-08-24T13:19:33;29.50;54.40
1415;DHT22;702;49.466;11.086;2022-08-24T13:22:39;29.50;53.60
1415;DHT22;702;49.466;11.086;2022-08-24T13:28:31;29.00;54.30
1415;DHT22;702;49.466;11.086;2022-08-24T13:31:25;28.90;55.00
1415;DHT22;702;49.466;11.086;2022-08-24T13:33:58;29.10;55.10
1415;DHT22;702;49.466;11.086;2022-08-24T13:37:10;29.30;54.90
1415;DHT22;702;49.466;11.086;2022-08-24T13:39:52;29.40;54.70
1415;DHT22;702;49.466;11.086;2022-08-24T13:42:40;29.40;54.10
1415;DHT22;702;49.466;11.086;2022-08-24T13:45:34;29.00;54.50
1415;DHT22;702;49.466;11.086;2022-08-24T13:48:21;28.80;53.50
1415;DHT22;702;49.466;11.086;2022-08-24T13:51:13;28.70;52.70
1415;DHT22;702;49.466;11.086;2022-08-24T13:54:11;28.70;53.00
1415;DHT22;702;49.466;11.086;2022-08-24T13:57:05;28.60;53.60
1415;DHT22;702;49.466;11.086;2022-08-24T14:00:14;28.60;53.60
1415;DHT22;702;49.466;11.086;2022-08-24T14:03:05;28.50;54.00
1415;DHT22;702;49.466;11.086;2022-08-24T14:05:47;28.30;54.80
1415;DHT22;702;49.466;11.086;2022-08-24T14:08:30;27.90;55.60
1415;DHT22;702;49.466;11.086;2022-08-24T14:11:08;27.90;56.00
1415;DHT22;702;49.466;11.086;2022-08-24T14:13:51;27.80;55.90
1415;DHT22;702;49.466;11.086;2022-08-24T14:16:32;27.70;56.20
1415;DHT22;702;49.466;11.086;2022-08-24T14:19:27;27.80;55.80
1415;DHT22;702;49.466;11.086;2022-08-24T14:22:11;28.00;56.20
1415;DHT22;702;49.466;11.086;2022-08-24T14:24:47;28.70;55.30
1415;DHT22;702;49.466;11.086;2022-08-24T14:27:39;29.20;54.90
1415;DHT22;702;49.466;11.086;2022-08-24T14:30:41;29.50;54.60
1415;DHT22;702;49.466;11.086;2022-08-24T14:33:20;29.70;54.20
1415;DHT22;702;49.466;11.086;2022-08-24T14:36:09;29.70;53.70
1415;DHT22;702;49.466;11.086;2022-08-24T14:39:00;29.50;54.00
1415;DHT22;702;49.466;11.086;2022-08-24T14:41:45;29.10;54.40
1415;DHT22;702;49.466;11.086;2022-08-24T14:47:36;28.90;54.70
1415;DHT22;702;49.466;11.086;2022-08-24T14:50:14;28.50;54.20
1415;DHT22;702;49.466;11.086;2022-08-24T14:52:57;28.10;54.80
1415;DHT22;702;49.466;11.086;2022-08-24T14:55:40;28.20;55.10
1415;DHT22;702;49.466;11.086;2022-08-24T14:58:23;27.90;55.00
1415;DHT22;702;49.466;11.086;2022-08-24T15:01:21;27.90;55.30
1415;DHT22;702;49.466;11.086;2022-08-24T15:04:07;28.00;55.10
1415;DHT22;702;49.466;11.086;2022-08-24T15:06:45;28.10;55.10
1415;DHT22;702;49.466;11.086;2022-08-24T15:09:20;28.00;55.20
1415;DHT22;702;49.466;11.086;2022-08-24T15:11:53;28.20;55.60
1415;DHT22;702;49.466;11.086;2022-08-24T15:14:31;28.50;55.90
1415;DHT22;702;49.466;11.086;2022-08-24T15:17:05;28.80;55.10
1415;DHT22;702;49.466;11.086;2022-08-24T15:19:45;28.80;55.20
1415;DHT22;702;49.466;11.086;2022-08-24T15:22:24;28.70;55.40
1415;DHT22;702;49.466;11.086;2022-08-24T15:24:58;28.60;55.60
1415;DHT22;702;49.466;11.086;2022-08-24T15:27:42;28.50;55.80
1415;DHT22;702;49.466;11.086;2022-08-24T15:30:22;28.40;56.10
1415;DHT22;702;49.466;11.086;2022-08-24T15:32:59;28.40;56.10
1415;DHT22;702;49.466;11.086;2022-08-24T15:35:34;28.40;55.30
1415;DHT22;702;49.466;11.086;2022-08-24T15:38:19;28.10;55.40
1415;DHT22;702;49.466;11.086;2022-08-24T15:40:51;28.00;55.70
1415;DHT22;702;49.466;11.086;2022-08-24T15:43:29;27.80;55.80
1415;DHT22;702;49.466;11.086;2022-08-24T15:45:58;27.60;55.90
1415;DHT22;702;49.466;11.086;2022-08-24T15:48:25;27.40;56.50
1415;DHT22;702;49.466;11.086;2022-08-24T15:50:54;27.20;57.10
1415;DHT22;702;49.466;11.086;2022-08-24T15:53:34;27.00;57.60
1415;DHT22;702;49.466;11.086;2022-08-24T15:56:25;27.00;58.10
1415;DHT22;702;49.466;11.086;2022-08-24T15:59:09;27.10;58.10
1415;DHT22;702;49.466;11.086;2022-08-24T16:01:39;27.10;58.10
1415;DHT22;702;49.466;11.086;2022-08-24T16:04:39;27.00;57.80
1415;DHT22;702;49.466;11.086;2022-08-24T16:07:15;27.10;58.20
1415;DHT22;702;49.466;11.086;2022-08-24T16:10:00;27.40;57.90
1415;DHT22;702;49.466;11.086;2022-08-24T16:12:31;27.80;57.80
1415;DHT22;702;49.466;11.086;2022-08-24T16:15:13;28.30;57.20
1415;DHT22;702;49.466;11.086;2022-08-24T16:17:46;28.60;56.90
1415;DHT22;702;49.466;11.086;2022-08-24T16:20:28;28.60;55.90
1415;DHT22;702;49.466;11.086;2022-08-24T16:23:01;28.20;56.50
1415;DHT22;702;49.466;11.086;2022-08-24T16:25:33;27.80;56.90
1415;DHT22;702;49.466;11.086;2022-08-24T16:28:09;27.60;57.00
1415;DHT22;702;49.466;11.086;2022-08-24T16:30:50;27.50;57.40
1415;DHT22;702;49.466;11.086;2022-08-24T16:33:40;27.50;56.70
1415;DHT22;702;49.466;11.086;2022-08-24T16:36:10;27.50;56.70
1415;DHT22;702;49.466;11.086;2022-08-24T16:38:40;27.20;56.90
1415;DHT22;702;49.466;11.086;2022-08-24T16:41:15;27.00;57.30
1415;DHT22;702;49.466;11.086;2022-08-24T16:43:44;27.00;57.50
1415;DHT22;702;49.466;11.086;2022-08-24T16:46:20;27.20;57.20
1415;DHT22;702;49.466;11.086;2022-08-24T16:48:48;27.50;57.10
1415;DHT22;702;49.466;11.086;2022-08-24T16:51:19;28.00;56.50
1415;DHT22;702;49.466;11.086;2022-08-24T16:53:49;28.20;56.30
1415;DHT22;702;49.466;11.086;2022-08-24T16:56:17;28.00;56.60
1415;DHT22;702;49.466;11.086;2022-08-24T16:58:45;27.90;56.50
1415;DHT22;702;49.466;11.086;2022-08-24T17:01:15;27.90;56.50
1415;DHT22;702;49.466;11.086;2022-08-24T17:03:45;27.90;56.40
1415;DHT22;702;49.466;11.086;2022-08-24T17:06:12;27.90;56.50
1415;DHT22;702;49.466;11.086;2022-08-24T17:08:41;28.10;56.60
1415;DHT22;702;49.466;11.086;2022-08-24T17:11:08;28.10;56.70